パリ/シャルル・ド・ゴール の空港の天気 - METARとTAF

シャルル・ド・ゴール国際空港(パリ) ( LFPG / CDG ) - フランス Paris
飛行場実況気象(Metar)
観測時間05/28 16:30 CEST (05/28 14:30 UTC)
風向・風速北東 6m/s
視程10km以上
天気現象
なし
気温23℃
湿度31%
気圧1028hPa
METARLFPG 281430Z AUTO 04012KT CAVOK 23/05 Q1028 NOSIG
過去の天気等 Google飛行場航空写真 Wunderground天気予報

過去48時間のMETAR

飛行場予報(TAF)
発表時間: 5/28 13:00 CEST (5/28 11:00 UTC)
予報対象時間: 28日14時 CEST ~ 29日20時 CEST
風向・風速北東 5m/s
視程10km以上
なし
TAF LFPG 281100Z 2812/2918 05010KT CAVOK TX24/2815Z TN12/2904Z